Terminal Aerodrome Forecast
Issued by NWS

Home | Current Version | Previous Version | Text Only | Print | Product List | Glossary On
Versions: 1 2 3 4 5 6 7 8 9 10 11 12 13 14 15 16 17
000
FTUS42 KMHX 221700
TAFOAJ
TAF
KOAJ 221721Z 2218/2318 31004KT P6SM SCT040 BKN070
     FM230000 04004KT P6SM SCT030 BKN100
     FM231400 04010KT P6SM OVC050
      AMD LTD TO CLD VIS AND WIND=

USA.gov is the U.S. government's official web portal to all federal, state and local government web resources and services.